Time;durP1;ratioP1;P1;durP2;ratioP2;P2;SDS_P1;SDS_P2;PMS_P1;PMS_P2;Temp;Humidity;BMP_temperature;BMP_pressure;BME280_temperature;BME280_humidity;BME280_pressure;Samples;Min_cycle;Max_cycle;Signal;HPM_P1;HPM_P2
2021/05/05 00:02:06;;;;;;;2.47;2.00;;;18.60;34.20;;;;;;8397336;28;20043;-47
2021/05/05 00:06:10;;;;;;;3.67;2.40;;;18.60;34.20;;;;;;8391482;28;20032;-49
2021/05/05 00:10:12;;;;;;;2.78;2.08;;;18.60;34.20;;;;;;8392744;28;20028;-48
2021/05/05 00:14:14;;;;;;;2.35;2.10;;;18.60;34.70;;;;;;8392277;28;20071;-48
2021/05/05 00:18:14;;;;;;;3.25;2.20;;;18.60;34.80;;;;;;8390165;28;20052;-50
2021/05/05 00:22:16;;;;;;;2.67;2.30;;;18.60;34.30;;;;;;8386458;28;20032;-47
2021/05/05 00:26:16;;;;;;;2.88;2.08;;;18.60;34.30;;;;;;8377911;28;20029;-47
2021/05/05 00:30:19;;;;;;;2.57;1.90;;;18.50;34.30;;;;;;8390329;28;20036;-49
2021/05/05 00:34:20;;;;;;;3.28;2.08;;;18.50;34.30;;;;;;8391525;28;20384;-48
2021/05/05 00:38:20;;;;;;;2.70;2.17;;;18.50;34.30;;;;;;8396242;28;20036;-49
2021/05/05 00:42:21;;;;;;;5.30;2.93;;;18.50;34.40;;;;;;8390063;28;20041;-49
2021/05/05 00:46:21;;;;;;;2.27;1.90;;;18.50;34.40;;;;;;8391944;28;20060;-49
2021/05/05 00:50:22;;;;;;;2.17;1.93;;;18.50;34.40;;;;;;8391462;28;20047;-48
2021/05/05 00:54:23;;;;;;;2.43;2.10;;;18.50;34.50;;;;;;8394527;28;20028;-48
2021/05/05 00:58:23;;;;;;;3.10;2.10;;;18.50;35.00;;;;;;8391378;28;20504;-47
2021/05/05 01:02:24;;;;;;;3.23;2.13;;;18.50;34.50;;;;;;8391617;28;20372;-47
2021/05/05 01:06:24;;;;;;;2.17;1.97;;;18.50;34.50;;;;;;8389615;28;20036;-47
2021/05/05 01:10:25;;;;;;;2.00;1.67;;;18.50;34.50;;;;;;8391331;28;20056;-49
2021/05/05 01:14:26;;;;;;;2.90;2.13;;;18.50;34.50;;;;;;8395561;28;20029;-48
2021/05/05 01:18:26;;;;;;;2.90;2.27;;;18.50;34.60;;;;;;8364576;28;20043;-48
2021/05/05 01:22:27;;;;;;;2.43;2.03;;;18.50;34.60;;;;;;8390841;28;20036;-48
2021/05/05 01:26:28;;;;;;;2.90;2.17;;;18.50;34.60;;;;;;8391469;28;20504;-48
2021/05/05 01:30:29;;;;;;;2.60;2.10;;;18.50;34.60;;;;;;8393623;28;20040;-49
2021/05/05 01:34:30;;;;;;;3.27;2.17;;;18.50;34.60;;;;;;8390719;28;20037;-49
2021/05/05 01:38:30;;;;;;;3.53;2.13;;;18.50;34.70;;;;;;8390270;28;20330;-48
2021/05/05 01:42:31;;;;;;;2.37;2.00;;;18.50;34.70;;;;;;8388237;28;20124;-48
2021/05/05 01:46:32;;;;;;;2.57;2.13;;;18.50;34.70;;;;;;8397268;28;20048;-49
2021/05/05 01:50:33;;;;;;;2.43;1.83;;;18.40;34.70;;;;;;8400568;28;20427;-48
2021/05/05 01:54:35;;;;;;;2.58;1.98;;;18.50;34.70;;;;;;8370958;28;20037;-49
2021/05/05 01:58:36;;;;;;;2.42;1.90;;;18.40;34.70;;;;;;8396477;28;20040;-48
2021/05/05 02:02:37;;;;;;;2.33;1.90;;;18.50;34.70;;;;;;8396873;28;20029;-47
2021/05/05 02:06:37;;;;;;;2.63;2.00;;;18.40;34.80;;;;;;8399400;28;20392;-50
2021/05/05 02:10:40;;;;;;;2.97;2.00;;;18.40;34.80;;;;;;8396129;28;20081;-48
2021/05/05 02:14:42;;;;;;;1.80;1.70;;;18.40;34.80;;;;;;8395767;28;20059;-49
2021/05/05 02:18:42;;;;;;;2.47;1.85;;;18.40;34.80;;;;;;8394299;28;20040;-49
2021/05/05 02:22:43;;;;;;;1.63;1.53;;;18.40;34.80;;;;;;8400789;28;20401;-48
2021/05/05 02:26:44;;;;;;;1.88;1.73;;;18.40;34.80;;;;;;8395459;28;20036;-48
2021/05/05 02:30:45;;;;;;;2.40;1.80;;;18.40;34.90;;;;;;8393215;28;20040;-48
2021/05/05 02:34:45;;;;;;;1.90;1.70;;;18.40;34.90;;;;;;8395375;28;20056;-48
2021/05/05 02:38:46;;;;;;;2.47;2.00;;;18.40;34.90;;;;;;8395371;28;20048;-48
2021/05/05 02:42:46;;;;;;;2.13;1.90;;;18.40;34.90;;;;;;8398796;28;20557;-48
2021/05/05 02:46:47;;;;;;;2.47;1.70;;;18.40;35.00;;;;;;8395109;28;20055;-49
2021/05/05 02:50:47;;;;;;;2.17;1.87;;;18.40;34.90;;;;;;8395325;28;20029;-49
2021/05/05 02:54:48;;;;;;;2.13;1.70;;;18.40;34.90;;;;;;8392175;28;20071;-49
2021/05/05 02:58:48;;;;;;;2.60;1.60;;;18.40;35.00;;;;;;8399172;28;20508;-48
2021/05/05 03:02:49;;;;;;;2.03;1.70;;;18.40;35.00;;;;;;8394633;28;20056;-49
2021/05/05 03:06:50;;;;;;;2.40;1.70;;;18.40;35.00;;;;;;8393039;28;20443;-49
2021/05/05 03:10:50;;;;;;;1.90;1.60;;;18.40;35.00;;;;;;8394908;28;20059;-51
2021/05/05 03:14:51;;;;;;;2.93;1.70;;;18.40;35.10;;;;;;8375502;28;20409;-48
2021/05/05 03:18:52;;;;;;;2.43;1.67;;;18.40;35.00;;;;;;8391451;28;20154;-48
2021/05/05 03:22:53;;;;;;;2.75;1.73;;;18.40;35.00;;;;;;8394297;28;20086;-48
2021/05/05 03:26:53;;;;;;;2.17;1.50;;;18.40;35.00;;;;;;8394124;28;20374;-47
2021/05/05 03:30:54;;;;;;;2.57;1.60;;;18.40;35.00;;;;;;8392558;28;20090;-48
2021/05/05 03:34:54;;;;;;;1.87;1.73;;;18.40;35.00;;;;;;8398556;28;20078;-49
2021/05/05 03:38:55;;;;;;;1.70;1.60;;;18.40;35.00;;;;;;8393794;28;20439;-49
2021/05/05 03:42:56;;;;;;;2.13;1.43;;;18.40;35.00;;;;;;8391953;28;20419;-47
2021/05/05 03:46:57;;;;;;;1.40;1.30;;;18.40;35.60;;;;;;8392655;28;20499;-49
2021/05/05 03:50:58;;;;;;;1.60;1.30;;;18.40;35.10;;;;;;8397677;28;20093;-49
2021/05/05 03:54:58;;;;;;;1.38;1.17;;;18.40;35.10;;;;;;8391595;28;20192;-50
2021/05/05 03:58:59;;;;;;;2.30;1.40;;;18.40;35.20;;;;;;8393210;28;20596;-48
2021/05/05 04:02:59;;;;;;;2.27;1.53;;;18.40;35.10;;;;;;8383223;28;20079;-48
2021/05/05 04:07:00;;;;;;;1.93;1.47;;;18.40;35.10;;;;;;8358755;28;20457;-48
2021/05/05 04:11:00;;;;;;;1.30;1.20;;;18.40;35.20;;;;;;8380671;28;20029;-49
2021/05/05 04:15:02;;;;;;;1.37;1.20;;;18.40;35.10;;;;;;8382591;28;20060;-50
2021/05/05 04:19:02;;;;;;;4.10;2.78;;;18.30;35.00;;;;;;8392674;28;20447;-48
2021/05/05 04:23:03;;;;;;;1.20;1.10;;;18.40;35.00;;;;;;8392404;28;20039;-50
2021/05/05 04:27:04;;;;;;;1.80;1.27;;;18.30;35.00;;;;;;8394814;28;20129;-47
2021/05/05 04:31:05;;;;;;;1.20;1.10;;;18.40;35.00;;;;;;8391820;28;20029;-47
2021/05/05 04:35:07;;;;;;;1.25;1.00;;;18.30;34.90;;;;;;8357774;28;20053;-47
2021/05/05 04:39:07;;;;;;;1.60;1.30;;;18.30;34.90;;;;;;8333662;28;20396;-47
2021/05/05 04:43:08;;;;;;;1.40;1.30;;;18.30;34.90;;;;;;8396263;28;20032;-46
2021/05/05 04:47:08;;;;;;;1.83;1.27;;;18.40;35.00;;;;;;8391633;28;20036;-46
2021/05/05 04:51:09;;;;;;;1.40;1.17;;;18.30;34.90;;;;;;8389679;28;20029;-47
2021/05/05 04:55:11;;;;;;;1.67;1.10;;;18.30;34.90;;;;;;8391609;28;20032;-46
2021/05/05 04:59:11;;;;;;;;;;;18.30;34.90;;;;;;8391650;28;20046;-45
2021/05/05 05:03:12;;;;;;;1.33;1.20;;;18.30;34.90;;;;;;8394597;28;20018;-46
2021/05/05 05:07:12;;;;;;;1.10;0.97;;;18.30;34.90;;;;;;8390854;28;20043;-47
2021/05/05 05:11:13;;;;;;;1.10;0.97;;;18.30;34.90;;;;;;8391225;28;20083;-47
2021/05/05 05:15:14;;;;;;;1.43;1.00;;;18.30;34.90;;;;;;8389186;28;20029;-47
2021/05/05 05:19:14;;;;;;;1.23;1.10;;;18.30;34.90;;;;;;8394947;28;20408;-48
2021/05/05 05:23:15;;;;;;;0.87;0.80;;;18.30;35.00;;;;;;8390891;28;20032;-49
2021/05/05 05:27:16;;;;;;;1.50;1.07;;;18.30;34.90;;;;;;8389422;28;20028;-48
2021/05/05 05:31:16;;;;;;;1.00;0.90;;;18.40;35.00;;;;;;8390673;28;20035;-49
2021/05/05 05:35:17;;;;;;;0.90;0.90;;;18.30;34.90;;;;;;8394943;28;20094;-49
2021/05/05 05:39:18;;;;;;;1.43;1.10;;;18.30;34.90;;;;;;8389076;28;20049;-50
2021/05/05 05:43:18;;;;;;;1.63;1.10;;;18.30;34.90;;;;;;8390874;28;20075;-48
2021/05/05 05:47:19;;;;;;;0.80;0.73;;;18.40;35.00;;;;;;8391256;28;20128;-49
2021/05/05 05:51:19;;;;;;;0.83;0.83;;;18.30;34.90;;;;;;8386324;28;20032;-49
2021/05/05 05:55:20;;;;;;;0.90;0.80;;;18.30;34.90;;;;;;8361455;28;20545;-50
2021/05/05 05:59:21;;;;;;;1.17;1.00;;;18.30;35.00;;;;;;8383841;28;20127;-47
2021/05/05 06:03:22;;;;;;;1.43;1.10;;;18.30;35.00;;;;;;8388702;28;20039;-50
2021/05/05 06:07:22;;;;;;;1.70;0.90;;;18.40;35.00;;;;;;8390442;28;20032;-50
2021/05/05 06:11:23;;;;;;;1.27;0.80;;;18.30;34.90;;;;;;8394745;28;20045;-48
2021/05/05 06:15:24;;;;;;;1.27;0.87;;;18.30;34.90;;;;;;8388688;28;20036;-51
2021/05/05 06:19:24;;;;;;;1.60;0.87;;;18.30;35.00;;;;;;8390327;28;20279;-47
2021/05/05 06:23:25;;;;;;;0.77;0.77;;;18.30;35.00;;;;;;8390137;28;20035;-47
2021/05/05 06:27:25;;;;;;;0.87;0.80;;;18.30;35.00;;;;;;8388324;28;20036;-48
2021/05/05 06:31:26;;;;;;;3.80;1.03;;;18.30;35.00;;;;;;8364498;28;20055;-48
2021/05/05 06:35:27;;;;;;;0.93;0.80;;;18.30;35.00;;;;;;8386884;28;20033;-50
2021/05/05 06:39:27;;;;;;;2.07;0.90;;;18.30;35.00;;;;;;8394123;28;20040;-48
2021/05/05 06:43:28;;;;;;;0.80;0.67;;;18.30;35.00;;;;;;8395608;28;20074;-46
2021/05/05 06:47:28;;;;;;;1.07;0.97;;;18.30;35.00;;;;;;8400193;28;20098;-50
2021/05/05 06:51:29;;;;;;;0.90;0.77;;;18.30;35.00;;;;;;8366192;27;20040;-48
2021/05/05 06:55:30;;;;;;;0.97;0.77;;;18.30;35.00;;;;;;8380346;28;20102;-48
2021/05/05 06:59:30;;;;;;;1.00;0.87;;;18.30;35.00;;;;;;8395136;28;20109;-49
2021/05/05 07:03:31;;;;;;;3.50;1.07;;;18.30;35.00;;;;;;8398375;28;20083;-49
2021/05/05 07:07:31;;;;;;;1.90;1.00;;;18.30;35.10;;;;;;8364358;28;20085;-52
2021/05/05 07:11:35;;;;;;;0.70;0.70;;;18.30;35.00;;;;;;8373852;28;20033;-48
2021/05/05 07:15:35;;;;;;;1.30;0.80;;;18.30;35.00;;;;;;8388299;28;20033;-47
2021/05/05 07:19:36;;;;;;;0.57;0.57;;;18.30;35.00;;;;;;8372696;28;20060;-48
2021/05/05 07:23:36;;;;;;;1.00;0.93;;;18.30;35.10;;;;;;8365634;28;20025;-49
2021/05/05 07:27:38;;;;;;;0.83;0.80;;;18.30;35.10;;;;;;8383938;28;20388;-49
2021/05/05 07:31:38;;;;;;;1.80;1.10;;;18.30;35.00;;;;;;8393966;28;20440;-46
2021/05/05 07:35:41;;;;;;;0.90;0.90;;;18.30;35.00;;;;;;8393754;28;20170;-49
2021/05/05 07:48:27;;;;;;;2.40;1.10;;;18.30;34.90;;;;;;8367184;28;20087;-50
2021/05/05 07:52:28;;;;;;;1.20;0.95;;;18.30;35.00;;;;;;8365365;27;20037;-47
2021/05/05 07:56:28;;;;;;;1.53;1.20;;;18.40;35.00;;;;;;8353225;28;20040;-48
2021/05/05 08:00:30;;;;;;;1.13;1.03;;;18.40;35.00;;;;;;8391900;28;20110;-47
2021/05/05 08:04:31;;;;;;;1.20;1.10;;;18.40;34.90;;;;;;8343428;28;20043;-50
2021/05/05 08:08:32;;;;;;;1.38;1.20;;;18.40;34.90;;;;;;8379786;28;20090;-47
2021/05/05 08:12:33;;;;;;;1.40;1.15;;;18.40;34.90;;;;;;8390996;28;20397;-51
2021/05/05 08:16:34;;;;;;;1.40;1.15;;;18.40;34.80;;;;;;8394344;28;20031;-47
2021/05/05 08:20:36;;;;;;;2.23;1.20;;;18.40;34.80;;;;;;8395044;28;20045;-49
2021/05/05 08:24:37;;;;;;;1.55;1.30;;;18.40;34.80;;;;;;8390810;28;20127;-48
2021/05/05 08:28:38;;;;;;;1.33;1.23;;;18.40;34.70;;;;;;8392750;28;20143;-49
2021/05/05 08:32:39;;;;;;;1.70;1.17;;;18.40;34.70;;;;;;8392466;28;20083;-48
2021/05/05 08:36:39;;;;;;;1.50;1.30;;;18.40;34.60;;;;;;8394757;28;20575;-46
2021/05/05 08:40:40;;;;;;;1.40;0.90;;;18.40;34.70;;;;;;8391849;28;20037;-48
2021/05/05 08:44:44;;;;;;;1.77;1.17;;;18.40;34.70;;;;;;8391936;28;20040;-49
2021/05/05 08:48:45;;;;;;;1.77;1.23;;;18.40;34.70;;;;;;8390138;28;20132;-49
2021/05/05 08:52:46;;;;;;;1.20;1.10;;;18.40;34.60;;;;;;8395602;28;20074;-46
2021/05/05 08:56:47;;;;;;;2.27;1.20;;;18.40;34.60;;;;;;8360679;28;20147;-50
2021/05/05 09:00:47;;;;;;;0.93;0.90;;;18.40;34.60;;;;;;8357898;28;20322;-48
2021/05/05 09:05:08;;;;;;;1.20;1.10;;;18.40;34.60;;;;;;8356046;28;20040;-47
2021/05/05 09:09:08;;;;;;;1.52;1.10;;;18.40;34.50;;;;;;8382368;28;20448;-46
2021/05/05 09:13:09;;;;;;;1.70;1.00;;;18.40;34.50;;;;;;8395779;28;20032;-47
2021/05/05 09:17:17;;;;;;;1.57;1.10;;;18.50;34.50;;;;;;8346155;28;20452;-46
2021/05/05 09:21:26;;;;;;;2.25;0.93;;;18.50;34.50;;;;;;8345306;28;20448;-48
2021/05/05 09:25:29;;;;;;;2.33;1.10;;;18.50;34.50;;;;;;8391168;28;20037;-47
2021/05/05 09:29:47;;;;;;;1.85;1.00;;;18.50;34.40;;;;;;8390582;28;20029;-51
2021/05/05 09:33:56;;;;;;;1.40;1.23;;;18.50;34.40;;;;;;8393956;28;20086;-48
2021/05/05 09:38:00;;;;;;;2.08;1.30;;;18.50;34.30;;;;;;8390980;28;20500;-48
2021/05/05 09:42:01;;;;;;;1.27;1.10;;;18.50;34.30;;;;;;8389093;28;20039;-49
2021/05/05 09:46:02;;;;;;;1.70;1.27;;;18.50;34.30;;;;;;8390918;28;20033;-47
2021/05/05 09:50:03;;;;;;;1.40;1.20;;;18.50;34.20;;;;;;8395060;28;20063;-49
2021/05/05 09:54:04;;;;;;;1.80;1.30;;;18.50;34.20;;;;;;8388638;28;20378;-46
2021/05/05 09:58:26;;;;;;;2.20;1.30;;;18.50;34.20;;;;;;8390265;28;20052;-51
2021/05/05 10:02:45;;;;;;;1.02;0.90;;;18.50;34.20;;;;;;8390291;28;20082;-49
2021/05/05 10:06:46;;;;;;;1.25;0.95;;;18.50;34.10;;;;;;8392696;28;20032;-46
2021/05/05 10:10:47;;;;;;;3.30;1.20;;;18.60;34.20;;;;;;8401124;28;20074;-49
2021/05/05 10:14:51;;;;;;;2.60;1.10;;;18.60;34.10;;;;;;8365003;28;20033;-48
2021/05/05 10:18:53;;;;;;;2.60;1.33;;;18.60;34.10;;;;;;8383791;28;20151;-47
2021/05/05 10:22:58;;;;;;;1.42;1.00;;;18.60;34.20;;;;;;8384320;28;20033;-46
2021/05/05 10:26:58;;;;;;;1.45;1.00;;;18.60;34.00;;;;;;8366600;28;20045;-46
2021/05/05 10:31:00;;;;;;;1.83;1.13;;;18.70;34.00;;;;;;8398747;28;20044;-46
2021/05/05 10:35:01;;;;;;;1.23;1.02;;;18.70;33.90;;;;;;8396115;28;20137;-46
2021/05/05 10:39:16;;;;;;;2.45;0.80;;;18.70;33.70;;;;;;8393907;28;20056;-49
2021/05/05 10:43:17;;;;;;;2.58;0.90;;;18.70;33.70;;;;;;8395753;28;20031;-47
2021/05/05 10:47:31;;;;;;;2.03;1.10;;;18.80;33.70;;;;;;8399983;28;20033;-49
2021/05/05 10:51:47;;;;;;;1.00;0.90;;;18.80;33.50;;;;;;8398048;28;20440;-50
2021/05/05 10:55:55;;;;;;;1.50;0.80;;;18.80;33.60;;;;;;8395307;28;20033;-45
2021/05/05 11:00:09;;;;;;;1.20;1.00;;;18.80;33.60;;;;;;8395002;28;20044;-46
2021/05/05 11:04:16;;;;;;;1.70;1.10;;;18.90;33.50;;;;;;8392985;28;20131;-49
2021/05/05 11:08:29;;;;;;;1.35;1.10;;;18.90;33.40;;;;;;8393291;28;20474;-48
2021/05/05 11:12:39;;;;;;;2.53;1.10;;;18.90;33.20;;;;;;8397665;28;20052;-49
2021/05/05 11:16:57;;;;;;;2.63;0.90;;;18.90;33.30;;;;;;8394144;28;20064;-48
2021/05/05 11:21:06;;;;;;;0.68;0.63;;;18.90;33.20;;;;;;8394549;28;20051;-49
2021/05/05 11:25:24;;;;;;;1.90;0.95;;;18.90;33.20;;;;;;8393033;28;20082;-49
2021/05/05 11:29:43;;;;;;;1.90;1.25;;;18.90;33.20;;;;;;8393579;28;20041;-48
2021/05/05 11:34:03;;;;;;;2.25;1.02;;;18.90;33.20;;;;;;8396853;28;20037;-46
2021/05/05 11:38:06;;;;;;;2.67;0.90;;;18.90;33.20;;;;;;8393865;28;20135;-46
2021/05/05 11:42:13;;;;;;;1.23;0.85;;;18.90;33.10;;;;;;8391959;28;20036;-50
2021/05/05 11:46:14;;;;;;;0.80;0.80;;;19.00;33.30;;;;;;8393849;28;20108;-48
2021/05/05 11:50:20;;;;;;;1.67;0.97;;;19.00;33.20;;;;;;8393877;28;20041;-49
2021/05/05 11:54:21;;;;;;;1.65;1.02;;;19.00;33.00;;;;;;8396303;28;20361;-50
2021/05/05 11:58:22;;;;;;;1.50;0.90;;;19.00;33.00;;;;;;8382145;28;20041;-46
2021/05/05 12:02:23;;;;;;;1.40;1.00;;;19.00;33.00;;;;;;8360204;28;20409;-49
2021/05/05 12:06:23;;;;;;;1.10;1.00;;;19.00;33.00;;;;;;8361376;28;20040;-47
2021/05/05 12:10:37;;;;;;;1.77;1.20;;;19.00;33.00;;;;;;8397731;28;20496;-45
2021/05/05 12:14:38;;;;;;;1.48;0.93;;;19.00;32.90;;;;;;8395622;28;20025;-47
2021/05/05 12:18:44;;;;;;;3.13;1.20;;;19.10;33.00;;;;;;8366786;28;20111;-49
2021/05/05 12:23:00;;;;;;;1.23;0.90;;;19.00;32.80;;;;;;8392310;28;20113;-47
2021/05/05 12:27:07;;;;;;;1.42;0.93;;;19.10;32.70;;;;;;8391707;28;20130;-47
2021/05/05 12:31:11;;;;;;;1.05;0.90;;;19.10;32.70;;;;;;8395316;28;20033;-46
2021/05/05 12:35:20;;;;;;;1.95;0.90;;;19.10;32.70;;;;;;8392260;28;20119;-48
2021/05/05 12:39:22;;;;;;;1.05;0.75;;;19.00;32.70;;;;;;8390196;28;20044;-49
2021/05/05 12:43:26;;;;;;;0.75;0.70;;;19.00;32.70;;;;;;8391777;28;20029;-48
2021/05/05 12:47:30;;;;;;;0.90;0.70;;;19.00;32.60;;;;;;8391713;28;20051;-48
2021/05/05 12:51:38;;;;;;;1.10;0.73;;;19.00;32.70;;;;;;8390751;28;20061;-51
2021/05/05 12:55:41;;;;;;;1.00;0.80;;;19.00;32.60;;;;;;8372099;28;20025;-45
2021/05/05 12:59:41;;;;;;;1.63;0.80;;;19.10;32.60;;;;;;8391216;28;20044;-47
2021/05/05 13:03:45;;;;;;;2.40;1.53;;;19.10;32.60;;;;;;8390219;28;20039;-46
2021/05/05 13:07:45;;;;;;;2.17;0.98;;;19.10;32.50;;;;;;8395997;28;20043;-47
2021/05/05 13:11:53;;;;;;;1.50;1.03;;;19.10;32.50;;;;;;8368398;28;20481;-48
2021/05/05 13:16:20;;;;;;;1.95;1.00;;;19.20;32.50;;;;;;8364738;28;20044;-46
2021/05/05 13:20:37;;;;;;;0.90;0.80;;;19.20;32.40;;;;;;8375820;28;20139;-48
2021/05/05 13:33:25;;;;;;;1.50;0.80;;;19.20;32.20;;;;;;8393792;28;20524;-49
2021/05/05 13:37:25;;;;;;;0.70;0.70;;;19.20;32.20;;;;;;8390327;28;20045;-49
2021/05/05 13:41:26;;;;;;;2.13;1.00;;;19.20;32.10;;;;;;8395811;28;20033;-46
2021/05/05 13:45:30;;;;;;;3.23;0.80;;;19.20;32.20;;;;;;8395791;28;20066;-51
2021/05/05 13:49:38;;;;;;;1.45;0.95;;;19.30;32.10;;;;;;8397537;28;20052;-49
2021/05/05 13:53:45;;;;;;;2.22;1.05;;;19.30;32.10;;;;;;8401486;28;20195;-47
2021/05/05 13:57:45;;;;;;;1.70;0.90;;;19.30;32.20;;;;;;8403100;28;20039;-48
2021/05/05 14:01:46;;;;;;;1.30;0.80;;;19.30;32.10;;;;;;8402859;28;20017;-51
2021/05/05 14:05:50;;;;;;;1.20;1.07;;;19.30;32.20;;;;;;8402760;28;20024;-47
2021/05/05 14:09:51;;;;;;;2.80;1.00;;;19.30;32.10;;;;;;8403088;28;20029;-48
2021/05/05 14:13:51;;;;;;;1.63;1.10;;;19.30;32.20;;;;;;8402433;28;20117;-49
2021/05/05 14:17:52;;;;;;;2.00;1.03;;;19.30;32.30;;;;;;8402513;28;20098;-48
2021/05/05 14:21:53;;;;;;;1.47;0.90;;;19.30;32.30;;;;;;8402626;28;20527;-48
2021/05/05 14:25:53;;;;;;;1.75;1.35;;;19.30;32.30;;;;;;8393965;28;20040;-46
2021/05/05 14:29:54;;;;;;;1.47;1.10;;;19.30;32.30;;;;;;8396228;28;20120;-47
2021/05/05 14:33:54;;;;;;;2.13;1.27;;;19.40;32.30;;;;;;8395801;28;20496;-46
2021/05/05 14:38:01;;;;;;;1.77;0.90;;;19.30;32.30;;;;;;8398349;28;20078;-51
2021/05/05 14:42:07;;;;;;;3.65;1.00;;;19.30;32.30;;;;;;8395358;28;20047;-46
2021/05/05 14:50:10;;;;;;;2.25;1.25;;;19.30;32.30;;;;;;8392723;28;20055;-46
2021/05/05 14:54:10;;;;;;;1.88;1.02;;;19.30;32.20;;;;;;8395041;28;20025;-46
2021/05/05 14:58:15;;;;;;;1.47;0.90;;;19.30;32.30;;;;;;8399852;28;20044;-47
2021/05/05 15:02:15;;;;;;;2.85;1.15;;;19.30;32.20;;;;;;8392181;28;20111;-47
2021/05/05 15:06:21;;;;;;;1.63;1.30;;;19.30;32.50;;;;;;8395170;28;20035;-51
2021/05/05 15:19:15;;;;;;;1.40;1.00;;;19.20;32.30;;;;;;8395816;28;20135;-51
2021/05/05 15:36:02;;;;;;;2.63;1.17;;;19.20;32.80;;;;;;8393881;28;20495;-50
2021/05/05 15:40:09;;;;;;;1.30;1.02;;;19.20;32.20;;;;;;8398264;28;20037;-48
2021/05/05 15:48:19;;;;;;;1.65;1.23;;;19.20;32.20;;;;;;8393706;28;20497;-48
2021/05/05 15:52:23;;;;;;;2.03;1.27;;;19.20;32.30;;;;;;8391676;28;20032;-45
2021/05/05 15:56:27;;;;;;;2.72;1.08;;;19.20;32.20;;;;;;8393219;28;20063;-47
2021/05/05 16:00:33;;;;;;;2.13;1.23;;;19.20;32.20;;;;;;8379367;28;20524;-48
2021/05/05 16:17:13;;;;;;;1.77;1.08;;;19.20;32.20;;;;;;8391120;28;20090;-47
2021/05/05 16:21:27;;;;;;;2.42;1.20;;;19.20;32.10;;;;;;8396653;28;20036;-50
2021/05/05 16:47:09;;;;;;;1.80;1.17;;;19.20;32.10;;;;;;8390248;28;20048;-49
2021/05/05 16:55:43;;;;;;;2.13;0.98;;;19.20;32.10;;;;;;8364939;28;20497;-47
2021/05/05 17:08:28;;;;;;;2.63;1.40;;;19.20;32.10;;;;;;8394284;28;20089;-47
2021/05/05 17:12:29;;;;;;;2.00;1.10;;;19.10;32.10;;;;;;8391721;28;20044;-48
2021/05/05 17:16:30;;;;;;;1.57;0.93;;;19.10;32.10;;;;;;8388690;28;20440;-47
2021/05/05 17:24:46;;;;;;;1.25;0.90;;;19.10;32.00;;;;;;8392208;28;19908;-46
2021/05/05 18:11:28;;;;;;;1.30;0.95;;;19.00;32.10;;;;;;8393057;28;20040;-49
2021/05/05 18:19:33;;;;;;;1.17;1.00;;;19.10;32.10;;;;;;8388643;28;20490;-48
2021/05/05 18:23:45;;;;;;;1.23;0.95;;;19.00;32.10;;;;;;8390247;28;20032;-50
2021/05/05 18:32:15;;;;;;;1.42;1.00;;;19.00;32.10;;;;;;8360927;28;20288;-52
2021/05/05 18:36:20;;;;;;;1.13;0.88;;;19.00;32.20;;;;;;8383395;28;20056;-46
2021/05/05 18:40:24;;;;;;;1.90;1.08;;;19.00;32.20;;;;;;8393479;28;20075;-45
2021/05/05 19:37:33;;;;;;;1.02;0.82;;;18.90;32.20;;;;;;8393827;28;20044;-46
2021/05/05 20:03:11;;;;;;;2.15;0.85;;;18.90;32.20;;;;;;8387181;28;20179;-47
2021/05/05 20:49:30;;;;;;;1.13;0.90;;;18.80;32.00;;;;;;8390812;28;20101;-49
2021/05/05 21:10:56;;;;;;;1.88;1.05;;;18.80;32.00;;;;;;8389676;28;20036;-48
2021/05/05 21:36:41;;;;;;;1.08;0.90;;;18.70;32.00;;;;;;8391287;28;20036;-51
2021/05/05 21:58:24;;;;;;;0.90;0.80;;;18.70;32.00;;;;;;8383802;28;20040;-46
2021/05/05 22:41:06;;;;;;;1.43;0.90;;;18.60;32.20;;;;;;8394112;28;20055;-47
2021/05/05 23:23:23;;;;;;;1.52;0.80;;;18.50;32.20;;;;;;8397432;28;20400;-46
2021/05/05 23:31:48;;;;;;;1.07;0.80;;;18.50;32.30;;;;;;8392760;28;20098;-48
